Terminal Aerodrome Forecast
Issued by NWS Sioux Falls, SD

Home | Current Version | Previous Version | Graphics & Text | Print | Product List | Glossary On
Versions: 1 2 3 4 5 6 7 8 9 10 11 12 13 14
000
FTUS43 KFSD 311720
TAFFSD
TAF
KFSD 311720Z 3118/0118 05005KT P6SM SKC
     FM311900 30007KT P6SM SCT050
     FM010000 VRB03KT P6SM SKC
     FM011500 15007KT P6SM SCT120 SCT250=

USA.gov is the U.S. government's official web portal to all federal, state and local government web resources and services.